createdAt,value
2017-12-06T00:00:56.647Z,16.10
2017-12-06T00:01:56.696Z,16.40
2017-12-06T00:02:56.649Z,16.50
2017-12-06T00:03:56.816Z,18.80
2017-12-06T00:04:56.683Z,16.50
2017-12-06T00:05:56.728Z,17.20
2017-12-06T00:06:56.683Z,15.70
2017-12-06T00:07:56.740Z,19.60
2017-12-06T00:08:56.699Z,19.00
2017-12-06T00:09:56.751Z,15.90
2017-12-06T00:10:56.712Z,18.00
2017-12-06T00:11:56.762Z,15.30
2017-12-06T00:12:56.719Z,15.20
2017-12-06T00:13:56.789Z,17.20
2017-12-06T00:14:56.734Z,16.40
2017-12-06T00:15:56.787Z,16.30
2017-12-06T00:16:56.739Z,19.30
2017-12-06T00:17:56.800Z,18.70
2017-12-06T00:18:56.757Z,15.70
2017-12-06T00:19:56.817Z,17.50
2017-12-06T00:20:56.770Z,18.30
2017-12-06T00:21:56.826Z,18.00
2017-12-06T00:22:56.784Z,15.00
2017-12-06T00:23:56.854Z,16.60
2017-12-06T00:24:56.776Z,17.20
2017-12-06T00:25:56.859Z,16.10
2017-12-06T00:26:56.783Z,17.10
2017-12-06T00:27:56.868Z,15.50
2017-12-06T00:28:56.812Z,17.10
2017-12-06T00:29:56.881Z,18.60
2017-12-06T00:30:56.813Z,15.80
2017-12-06T00:31:56.911Z,16.70
2017-12-06T00:32:56.830Z,16.10
2017-12-06T00:33:56.907Z,14.30
2017-12-06T00:34:56.832Z,16.40
2017-12-06T00:35:56.924Z,15.60
2017-12-06T00:36:56.844Z,15.70
2017-12-06T00:37:56.939Z,15.70
2017-12-06T00:38:56.852Z,15.80
2017-12-06T00:39:57.979Z,17.00
2017-12-06T00:40:56.866Z,16.60
2017-12-06T00:41:57.012Z,17.30
2017-12-06T00:42:56.885Z,15.90
2017-12-06T00:43:56.988Z,17.60
2017-12-06T00:44:56.890Z,16.50
2017-12-06T00:45:57.003Z,18.40
2017-12-06T00:46:56.898Z,14.60
2017-12-06T00:47:57.011Z,15.90
2017-12-06T00:48:56.918Z,17.90
2017-12-06T00:49:57.012Z,14.60
2017-12-06T00:50:56.924Z,15.40
2017-12-06T00:51:57.035Z,17.60
2017-12-06T00:52:56.938Z,17.20
2017-12-06T00:53:57.037Z,16.40
2017-12-06T00:54:56.957Z,14.50
2017-12-06T00:55:57.066Z,16.60
2017-12-06T00:56:56.956Z,16.40
2017-12-06T00:57:57.067Z,16.00
2017-12-06T00:58:56.982Z,19.60
2017-12-06T00:59:59.027Z,18.10
2017-12-06T01:00:56.978Z,16.00
2017-12-06T01:01:57.104Z,18.20
2017-12-06T01:02:56.994Z,18.00
2017-12-06T01:03:57.009Z,19.40
2017-12-06T01:04:57.003Z,17.10
2017-12-06T01:05:57.023Z,16.20
2017-12-06T01:06:57.016Z,18.70
2017-12-06T01:07:57.037Z,17.50
2017-12-06T01:08:57.021Z,22.10
2017-12-06T01:09:57.048Z,18.10
2017-12-06T01:10:57.033Z,16.70
2017-12-06T01:11:57.067Z,17.80
2017-12-06T01:12:57.048Z,20.10
2017-12-06T01:13:57.082Z,19.30
2017-12-06T01:14:57.059Z,18.00
2017-12-06T01:15:57.095Z,18.80
2017-12-06T01:16:57.073Z,19.40
2017-12-06T01:17:57.109Z,17.60
2017-12-06T01:18:57.076Z,17.80
2017-12-06T01:19:57.123Z,19.60
2017-12-06T01:20:57.093Z,20.60
2017-12-06T01:21:57.139Z,19.60
2017-12-06T01:22:57.098Z,21.10
2017-12-06T01:23:57.151Z,18.90
2017-12-06T01:24:57.119Z,19.00
2017-12-06T01:25:57.164Z,17.30
2017-12-06T01:26:57.116Z,19.60
2017-12-06T01:27:57.183Z,17.30
2017-12-06T01:28:57.130Z,19.70
2017-12-06T01:29:57.182Z,20.20
2017-12-06T01:30:57.152Z,19.10
2017-12-06T01:31:57.205Z,17.00
2017-12-06T01:32:57.163Z,19.20
2017-12-06T01:33:57.213Z,18.40
2017-12-06T01:34:57.177Z,18.30
2017-12-06T01:35:57.226Z,20.00
2017-12-06T01:36:57.185Z,18.80
2017-12-06T01:37:57.246Z,17.00
2017-12-06T01:38:57.193Z,17.60
2017-12-06T01:39:57.253Z,18.70
2017-12-06T01:40:57.202Z,18.10
2017-12-06T01:41:57.273Z,16.40
2017-12-06T01:42:57.240Z,18.50
2017-12-06T01:43:57.278Z,16.60
2017-12-06T01:44:57.216Z,19.60
2017-12-06T01:45:57.295Z,19.80
2017-12-06T01:46:57.236Z,19.70
2017-12-06T01:47:57.320Z,17.90
2017-12-06T01:48:57.241Z,19.20
2017-12-06T01:49:57.333Z,18.30
2017-12-06T01:50:57.256Z,17.70
2017-12-06T01:51:57.334Z,19.10
2017-12-06T01:52:57.267Z,19.30
2017-12-06T01:53:57.363Z,19.20
2017-12-06T01:54:57.276Z,19.10
2017-12-06T01:55:57.367Z,16.90
2017-12-06T01:56:57.301Z,19.60
2017-12-06T01:57:57.372Z,19.50
2017-12-06T01:58:57.313Z,18.50
2017-12-06T01:59:57.400Z,17.30
2017-12-06T02:00:57.315Z,18.40
2017-12-06T02:01:57.404Z,18.80
2017-12-06T02:02:57.331Z,22.00
2017-12-06T02:03:57.417Z,21.10
2017-12-06T02:04:57.342Z,19.60
2017-12-06T02:05:57.427Z,21.90
2017-12-06T02:06:57.412Z,20.30
2017-12-06T02:07:58.468Z,20.50
2017-12-06T02:08:57.348Z,20.70
2017-12-06T02:09:57.469Z,23.00
2017-12-06T02:10:57.358Z,19.70
2017-12-06T02:11:57.483Z,21.60
2017-12-06T02:12:57.373Z,19.50
2017-12-06T02:13:57.488Z,21.50
2017-12-06T02:14:57.392Z,20.50
2017-12-06T02:15:57.497Z,22.20
2017-12-06T02:16:57.437Z,22.20
2017-12-06T02:17:57.508Z,20.20
2017-12-06T02:18:57.410Z,23.50
2017-12-06T02:19:57.538Z,22.10
2017-12-06T02:20:57.422Z,23.30
2017-12-06T02:21:57.436Z,22.00
2017-12-06T02:22:57.435Z,22.40
2017-12-06T02:23:58.468Z,23.20
2017-12-06T02:24:57.434Z,22.00
2017-12-06T02:25:57.465Z,22.90
2017-12-06T02:26:57.451Z,23.60
2017-12-06T02:27:57.583Z,22.40
2017-12-06T02:28:57.462Z,21.70
2017-12-06T02:29:57.504Z,23.90
2017-12-06T02:30:57.472Z,24.70
2017-12-06T02:31:57.512Z,26.20
2017-12-06T02:32:57.484Z,24.90
2017-12-06T02:33:57.520Z,25.80
2017-12-06T02:34:57.495Z,24.20
2017-12-06T02:35:57.534Z,23.70
2017-12-06T02:36:57.546Z,24.00
2017-12-06T02:37:57.552Z,26.80
2017-12-06T02:38:57.522Z,25.70
2017-12-06T02:39:57.573Z,26.40
2017-12-06T02:40:57.543Z,26.90
2017-12-06T02:41:58.604Z,23.80
2017-12-06T02:42:57.553Z,27.00
2017-12-06T02:43:57.606Z,23.30
2017-12-06T02:44:57.559Z,26.80
2017-12-06T02:45:57.606Z,24.60
2017-12-06T02:46:57.568Z,23.60
2017-12-06T02:47:57.632Z,25.60
2017-12-06T02:48:57.583Z,25.40
2017-12-06T02:49:57.632Z,25.40
2017-12-06T02:50:57.597Z,23.90
2017-12-06T02:51:57.666Z,24.40
2017-12-06T02:52:57.610Z,25.20
2017-12-06T02:53:57.651Z,26.00
2017-12-06T02:54:57.609Z,27.50
2017-12-06T02:55:57.665Z,27.30
2017-12-06T02:56:57.630Z,26.70
2017-12-06T02:57:57.698Z,27.00
2017-12-06T02:58:57.633Z,28.20
2017-12-06T02:59:57.691Z,26.50
2017-12-06T03:00:57.633Z,27.10
2017-12-06T03:01:57.708Z,23.00
2017-12-06T03:02:57.655Z,26.90
2017-12-06T03:03:57.729Z,26.00
2017-12-06T03:04:57.668Z,24.30
2017-12-06T03:05:58.502Z,27.20
2017-12-06T03:06:57.671Z,25.00
2017-12-06T03:07:57.753Z,25.10
2017-12-06T03:08:57.686Z,26.60
2017-12-06T03:09:57.766Z,27.70
2017-12-06T03:10:57.690Z,25.60
2017-12-06T03:11:57.780Z,26.20
2017-12-06T03:12:57.701Z,26.20
2017-12-06T03:13:57.790Z,27.60
2017-12-06T03:14:57.715Z,30.20
2017-12-06T03:15:57.809Z,25.50
2017-12-06T03:16:57.726Z,24.40
2017-12-06T03:17:57.817Z,27.10
2017-12-06T03:18:57.737Z,25.30
2017-12-06T03:19:57.834Z,27.10
2017-12-06T03:20:57.762Z,26.70
2017-12-06T03:21:57.864Z,25.60
2017-12-06T03:22:57.768Z,27.30
2017-12-06T03:23:57.858Z,25.30
2017-12-06T03:24:57.764Z,27.40
2017-12-06T03:25:57.889Z,27.10
2017-12-06T03:26:57.778Z,27.60
2017-12-06T03:27:57.884Z,26.90
2017-12-06T03:28:57.787Z,24.60
2017-12-06T03:29:57.918Z,24.60
2017-12-06T03:30:57.806Z,27.10
2017-12-06T03:31:57.913Z,25.80
2017-12-06T03:32:57.814Z,27.20
2017-12-06T03:33:57.925Z,27.30
2017-12-06T03:34:57.817Z,26.90
2017-12-06T03:35:57.944Z,28.30
2017-12-06T03:36:57.835Z,25.50
2017-12-06T03:37:57.849Z,26.90
2017-12-06T03:38:57.838Z,30.20
2017-12-06T03:39:57.869Z,28.10
2017-12-06T03:40:57.851Z,26.30
2017-12-06T03:41:57.879Z,27.80
2017-12-06T03:42:57.864Z,27.80
2017-12-06T03:43:57.901Z,26.30
2017-12-06T03:44:57.880Z,25.80
2017-12-06T03:45:57.917Z,27.70
2017-12-06T03:46:57.887Z,26.40
2017-12-06T03:47:57.926Z,27.10
2017-12-06T03:48:57.913Z,27.30
2017-12-06T03:49:57.939Z,26.80
2017-12-06T03:50:57.915Z,28.50
2017-12-06T03:51:57.945Z,25.50
2017-12-06T03:52:57.933Z,29.10
2017-12-06T03:53:57.965Z,26.10
2017-12-06T03:54:57.941Z,26.90
2017-12-06T03:55:57.980Z,28.20
2017-12-06T03:56:57.957Z,27.80
2017-12-06T03:57:57.989Z,24.40
2017-12-06T03:58:57.964Z,26.90
2017-12-06T03:59:59.030Z,24.70
2017-12-06T04:00:57.964Z,24.90
2017-12-06T04:01:58.013Z,24.60
2017-12-06T04:02:57.969Z,26.50
2017-12-06T04:03:59.056Z,24.80
2017-12-06T04:04:57.984Z,25.80
2017-12-06T04:05:58.047Z,25.30
2017-12-06T04:06:58.010Z,25.20
2017-12-06T04:07:58.059Z,25.00
2017-12-06T04:08:58.010Z,27.80
2017-12-06T04:09:58.072Z,28.20
2017-12-06T04:10:58.021Z,28.60
2017-12-06T04:11:58.088Z,25.70
2017-12-06T04:12:58.035Z,25.90
2017-12-06T04:13:58.093Z,27.60
2017-12-06T04:14:58.050Z,26.40
2017-12-06T04:15:58.105Z,23.80
2017-12-06T04:16:58.064Z,23.40
2017-12-06T04:17:58.126Z,25.30
2017-12-06T04:18:58.067Z,25.40
2017-12-06T04:19:58.140Z,24.60
2017-12-06T04:20:58.076Z,26.80
2017-12-06T04:21:58.152Z,25.80
2017-12-06T04:22:58.104Z,25.70
2017-12-06T04:23:58.168Z,23.30
2017-12-06T04:24:58.101Z,25.70
2017-12-06T04:25:58.182Z,25.20
2017-12-06T04:26:58.117Z,28.50
2017-12-06T04:27:58.193Z,25.20
2017-12-06T04:28:58.145Z,24.70
2017-12-06T04:29:58.204Z,23.40
2017-12-06T04:30:58.128Z,24.20
2017-12-06T04:31:58.218Z,26.80
2017-12-06T04:32:58.142Z,25.00
2017-12-06T04:33:59.259Z,27.80
2017-12-06T04:34:58.150Z,26.00
2017-12-06T04:35:58.250Z,26.90
2017-12-06T04:36:58.161Z,26.40
2017-12-06T04:37:58.262Z,23.90
2017-12-06T04:38:58.175Z,27.10
2017-12-06T04:39:58.275Z,24.90
2017-12-06T04:40:58.184Z,22.80
2017-12-06T04:41:58.304Z,25.40
2017-12-06T04:42:58.193Z,24.00
2017-12-06T04:43:58.302Z,24.80
2017-12-06T04:44:58.210Z,27.30
2017-12-06T04:45:59.244Z,23.00
2017-12-06T04:46:58.220Z,26.00
2017-12-06T04:47:58.332Z,26.20
2017-12-06T04:48:58.230Z,26.20
2017-12-06T04:49:58.347Z,27.50
2017-12-06T04:50:58.243Z,26.00
2017-12-06T04:51:59.285Z,28.30
2017-12-06T04:52:58.249Z,25.70
2017-12-06T04:53:58.272Z,26.20
2017-12-06T04:54:58.257Z,27.50
2017-12-06T04:55:58.284Z,27.60
2017-12-06T04:56:58.268Z,27.30
2017-12-06T04:57:58.304Z,25.60
2017-12-06T04:58:58.275Z,25.20
2017-12-06T04:59:58.313Z,31.10
2017-12-06T05:00:58.290Z,25.70
2017-12-06T05:01:58.326Z,26.40
2017-12-06T05:02:58.297Z,26.90
2017-12-06T05:03:58.339Z,26.70
2017-12-06T05:04:58.308Z,28.70
2017-12-06T05:05:58.353Z,26.30
2017-12-06T05:06:58.323Z,26.30
2017-12-06T05:07:59.398Z,27.60
2017-12-06T05:08:58.333Z,30.30
2017-12-06T05:09:58.384Z,29.00
2017-12-06T05:10:58.349Z,26.60
2017-12-06T05:11:58.393Z,25.90
2017-12-06T05:12:58.365Z,29.40
2017-12-06T05:13:58.406Z,25.20
2017-12-06T05:14:58.375Z,27.90
2017-12-06T05:15:58.417Z,26.10
2017-12-06T05:16:58.377Z,28.70
2017-12-06T05:17:58.429Z,27.40
2017-12-06T05:18:58.391Z,27.00
2017-12-06T05:19:58.445Z,30.30
2017-12-06T05:20:58.397Z,30.20
2017-12-06T05:21:58.458Z,30.70
2017-12-06T05:22:58.416Z,31.70
2017-12-06T05:23:58.473Z,26.50
2017-12-06T05:24:58.422Z,32.20
2017-12-06T05:25:59.508Z,27.50
2017-12-06T05:26:58.435Z,29.20
2017-12-06T05:27:58.503Z,31.10
2017-12-06T05:28:58.450Z,27.00
2017-12-06T05:29:58.512Z,28.70
2017-12-06T05:30:58.462Z,34.10
2017-12-06T05:31:58.526Z,29.40
2017-12-06T05:32:58.480Z,28.00
2017-12-06T05:33:58.535Z,28.60
2017-12-06T05:34:58.477Z,30.50
2017-12-06T05:35:58.553Z,30.60
2017-12-06T05:36:58.479Z,28.00
2017-12-06T05:37:58.563Z,28.80
2017-12-06T05:38:58.493Z,26.40
2017-12-06T05:39:58.589Z,30.00
2017-12-06T05:40:58.518Z,28.80
2017-12-06T05:41:58.592Z,28.20
2017-12-06T05:42:58.510Z,28.40
2017-12-06T05:43:58.613Z,29.10
2017-12-06T05:44:58.529Z,28.20
2017-12-06T05:45:58.619Z,27.90
2017-12-06T05:46:58.543Z,29.20
2017-12-06T05:47:58.633Z,26.80
2017-12-06T05:48:58.547Z,26.60
2017-12-06T05:49:58.644Z,28.20
2017-12-06T05:50:58.571Z,31.50
2017-12-06T05:51:58.666Z,29.10
2017-12-06T05:52:58.576Z,29.30
2017-12-06T05:53:58.679Z,28.10
2017-12-06T05:54:58.594Z,31.70
2017-12-06T05:55:58.688Z,26.30
2017-12-06T05:56:58.605Z,28.40
2017-12-06T05:57:58.747Z,26.30
2017-12-06T05:58:58.608Z,27.30
2017-12-06T05:59:58.720Z,29.50
2017-12-06T06:00:58.609Z,28.40
2017-12-06T06:01:58.743Z,28.60
2017-12-06T06:02:58.627Z,27.30
2017-12-06T06:03:58.744Z,29.60
2017-12-06T06:04:58.638Z,28.60
2017-12-06T06:05:58.765Z,29.70
2017-12-06T06:06:58.648Z,29.30
2017-12-06T06:07:59.712Z,30.60
2017-12-06T06:08:58.658Z,27.30
2017-12-06T06:09:58.685Z,30.10
2017-12-06T06:10:58.675Z,27.60
2017-12-06T06:11:58.689Z,28.80
2017-12-06T06:12:58.686Z,25.30
2017-12-06T06:13:58.709Z,26.20
2017-12-06T06:14:58.694Z,28.80
2017-12-06T06:15:58.724Z,28.30
2017-12-06T06:16:58.739Z,28.30
2017-12-06T06:17:58.742Z,28.80
2017-12-06T06:18:58.710Z,28.00
2017-12-06T06:19:58.759Z,27.40
2017-12-06T06:20:58.727Z,26.60
2017-12-06T06:21:58.772Z,24.60
2017-12-06T06:22:58.736Z,28.10
2017-12-06T06:23:58.793Z,23.60
2017-12-06T06:24:58.744Z,24.20
2017-12-06T06:25:58.797Z,25.90
2017-12-06T06:26:58.755Z,27.00
2017-12-06T06:27:58.804Z,26.00
2017-12-06T06:28:58.774Z,26.10
2017-12-06T06:29:58.818Z,25.80
2017-12-06T06:30:58.773Z,25.20
2017-12-06T06:31:58.834Z,24.70
2017-12-06T06:32:58.799Z,24.40
2017-12-06T06:33:58.841Z,23.90
2017-12-06T06:34:58.800Z,27.90
2017-12-06T06:35:58.870Z,25.90
2017-12-06T06:36:58.811Z,29.10
2017-12-06T06:37:59.897Z,26.60
2017-12-06T06:38:58.872Z,27.60
2017-12-06T06:39:58.883Z,27.40
2017-12-06T06:40:58.843Z,26.70
2017-12-06T06:41:58.898Z,27.00
2017-12-06T06:42:58.901Z,26.20
2017-12-06T06:43:58.911Z,28.40
2017-12-06T06:44:58.906Z,24.20
2017-12-06T06:45:58.926Z,26.90
2017-12-06T06:46:58.861Z,25.30
2017-12-06T06:47:58.938Z,24.70
2017-12-06T06:48:58.891Z,23.70
2017-12-06T06:49:58.996Z,24.70
2017-12-06T06:50:58.886Z,24.60
2017-12-06T06:51:58.966Z,24.60
2017-12-06T06:52:58.899Z,25.70
2017-12-06T06:53:58.982Z,27.50
2017-12-06T06:54:58.919Z,24.30
2017-12-06T06:55:58.989Z,23.50
2017-12-06T06:56:58.917Z,27.30
2017-12-06T06:57:59.005Z,24.70
2017-12-06T06:58:58.926Z,23.70
2017-12-06T06:59:59.032Z,24.70
2017-12-06T07:00:58.944Z,26.00
2017-12-06T07:01:59.044Z,26.30
2017-12-06T07:02:58.949Z,27.40
2017-12-06T07:03:59.057Z,25.00
2017-12-06T07:04:58.964Z,25.70
2017-12-06T07:05:59.065Z,26.60
2017-12-06T07:06:58.970Z,23.40
2017-12-06T07:07:58.982Z,25.20
2017-12-06T07:08:58.982Z,22.10
2017-12-06T07:09:58.990Z,24.90
2017-12-06T07:10:59.100Z,24.50
2017-12-06T07:11:59.008Z,22.30
2017-12-06T07:12:59.101Z,21.70
2017-12-06T07:13:59.016Z,26.80
2017-12-06T07:15:00.045Z,27.30
2017-12-06T07:15:59.035Z,25.60
2017-12-06T07:16:59.138Z,23.70
2017-12-06T07:17:59.032Z,26.80
2017-12-06T07:18:59.156Z,24.50
2017-12-06T07:19:59.043Z,23.90
2017-12-06T07:20:59.067Z,22.50
2017-12-06T07:21:59.051Z,22.10
2017-12-06T07:22:59.080Z,22.10
2017-12-06T07:23:59.069Z,23.20
2017-12-06T07:24:59.089Z,23.10
2017-12-06T07:25:59.076Z,26.20
2017-12-06T07:26:59.110Z,21.90
2017-12-06T07:27:59.088Z,21.80
2017-12-06T07:28:59.120Z,23.80
2017-12-06T07:29:59.094Z,21.70
2017-12-06T07:30:59.130Z,21.00
2017-12-06T07:31:59.108Z,24.50
2017-12-06T07:32:59.148Z,23.90
2017-12-06T07:33:59.114Z,23.30
2017-12-06T07:34:59.176Z,20.60
2017-12-06T07:35:59.130Z,24.00
2017-12-06T07:36:59.178Z,23.70
2017-12-06T07:37:59.132Z,20.20
2017-12-06T07:38:59.144Z,22.80
2017-12-06T07:39:59.144Z,21.50
2017-12-06T07:40:59.199Z,24.60
2017-12-06T07:41:59.159Z,21.20
2017-12-06T07:42:59.211Z,21.30
2017-12-06T07:43:59.171Z,22.40
2017-12-06T07:44:59.219Z,23.20
2017-12-06T07:45:59.222Z,25.00
2017-12-06T07:46:59.240Z,22.60
2017-12-06T07:47:59.273Z,20.50
2017-12-06T07:48:59.250Z,23.10
2017-12-06T07:49:59.205Z,21.30
2017-12-06T07:50:59.279Z,20.70
2017-12-06T07:51:59.216Z,21.00
2017-12-06T07:52:59.280Z,23.10
2017-12-06T07:53:59.236Z,21.20
2017-12-06T07:54:59.294Z,21.30
2017-12-06T07:55:59.232Z,19.10
2017-12-06T07:56:59.293Z,22.70
2017-12-06T07:57:59.244Z,21.00
2017-12-06T07:58:59.253Z,21.60
2017-12-06T07:59:59.256Z,21.20
2017-12-06T08:00:59.253Z,19.30
2017-12-06T08:01:59.312Z,17.80
2017-12-06T08:02:59.291Z,22.70
2017-12-06T08:03:59.340Z,22.40
2017-12-06T08:04:59.280Z,22.80
2017-12-06T08:06:00.361Z,20.20
2017-12-06T08:06:59.293Z,21.10
2017-12-06T08:07:59.363Z,22.40
2017-12-06T08:08:59.306Z,19.40
2017-12-06T08:09:59.368Z,19.40
2017-12-06T08:10:59.317Z,19.20
2017-12-06T08:11:59.335Z,18.40
2017-12-06T08:12:59.340Z,19.30
2017-12-06T08:13:59.393Z,19.70
2017-12-06T08:14:59.328Z,18.70
2017-12-06T08:16:00.346Z,18.30
2017-12-06T08:16:59.357Z,20.10
2017-12-06T08:17:59.425Z,20.10
2017-12-06T08:18:59.364Z,22.10
2017-12-06T08:19:59.438Z,17.40
2017-12-06T08:20:59.366Z,17.60
2017-12-06T08:22:00.477Z,19.20
2017-12-06T08:22:59.378Z,16.90
2017-12-06T08:23:59.464Z,21.00
2017-12-06T08:24:59.388Z,19.40
2017-12-06T08:26:00.502Z,21.80
2017-12-06T08:26:59.402Z,18.20
2017-12-06T08:27:59.405Z,19.70
2017-12-06T08:28:59.499Z,17.20
2017-12-06T08:29:59.417Z,20.30
2017-12-06T08:30:59.508Z,17.40
2017-12-06T08:31:59.440Z,17.40
2017-12-06T08:32:59.465Z,20.20
2017-12-06T08:33:59.440Z,18.10
2017-12-06T08:34:59.480Z,20.60
2017-12-06T08:35:59.449Z,18.60
2017-12-06T08:37:00.359Z,22.50
2017-12-06T08:37:59.464Z,18.00
2017-12-06T08:38:59.513Z,18.10
2017-12-06T08:39:59.471Z,18.30
2017-12-06T08:40:59.481Z,18.60
2017-12-06T08:41:59.489Z,20.80
2017-12-06T08:42:59.532Z,18.50
2017-12-06T08:43:59.510Z,16.30
2017-12-06T08:45:00.592Z,18.10
2017-12-06T08:45:59.517Z,18.20
2017-12-06T08:47:00.543Z,19.10
2017-12-06T08:47:59.542Z,19.00
2017-12-06T08:49:00.607Z,17.70
2017-12-06T08:49:59.545Z,17.70
2017-12-06T08:51:00.614Z,16.20
2017-12-06T08:51:59.535Z,18.40
2017-12-06T08:52:59.607Z,18.60
2017-12-06T08:53:59.548Z,16.20
2017-12-06T08:54:59.620Z,18.70
2017-12-06T08:55:59.552Z,16.90
2017-12-06T08:56:59.666Z,16.20
2017-12-06T08:57:59.568Z,17.10
2017-12-06T08:58:59.570Z,16.10
2017-12-06T09:00:01.702Z,18.00
2017-12-06T09:00:59.588Z,17.90
2017-12-06T09:02:00.690Z,15.40
2017-12-06T09:02:59.589Z,16.60
2017-12-06T09:03:59.649Z,14.80
2017-12-06T09:04:59.608Z,17.20
2017-12-06T09:05:59.658Z,15.60
2017-12-06T09:06:59.616Z,16.60
2017-12-06T09:07:59.623Z,18.50
2017-12-06T09:08:59.680Z,18.80
2017-12-06T09:09:59.637Z,14.00
2017-12-06T09:10:59.691Z,15.80
2017-12-06T09:11:59.638Z,17.40
2017-12-06T09:12:59.771Z,15.10
2017-12-06T09:13:59.657Z,17.80
2017-12-06T09:14:59.772Z,16.90
2017-12-06T09:15:59.664Z,14.00
2017-12-06T09:17:01.735Z,16.70
2017-12-06T09:17:59.671Z,18.60
2017-12-06T09:19:01.751Z,14.50
2017-12-06T09:19:59.680Z,16.80
2017-12-06T09:20:59.690Z,18.50
2017-12-06T09:21:59.699Z,13.40
2017-12-06T09:22:59.726Z,14.40
2017-12-06T09:23:59.707Z,13.00
2017-12-06T09:24:59.735Z,14.80
2017-12-06T09:25:59.717Z,17.80
2017-12-06T09:26:59.766Z,16.50
2017-12-06T09:27:59.728Z,14.30
2017-12-06T09:28:59.764Z,15.00
2017-12-06T09:29:59.740Z,16.70
2017-12-06T09:31:00.804Z,13.90
2017-12-06T09:31:59.743Z,14.70
2017-12-06T09:32:59.790Z,13.30
2017-12-06T09:33:59.771Z,13.10
2017-12-06T09:34:59.765Z,14.50
2017-12-06T09:35:59.765Z,14.80
2017-12-06T09:36:59.818Z,12.70
2017-12-06T09:37:59.786Z,14.70
2017-12-06T09:39:00.856Z,13.80
2017-12-06T09:39:59.796Z,14.10
2017-12-06T09:40:59.826Z,13.20
2017-12-06T09:41:59.805Z,14.50
2017-12-06T09:42:59.833Z,15.60
2017-12-06T09:43:59.809Z,13.50
2017-12-06T09:44:59.853Z,15.70
2017-12-06T09:45:59.822Z,14.20
2017-12-06T09:46:59.860Z,13.00
2017-12-06T09:47:59.833Z,12.50
2017-12-06T09:49:00.898Z,12.10
2017-12-06T09:49:59.843Z,13.50
2017-12-06T09:50:59.946Z,12.00
2017-12-06T09:51:59.856Z,13.80
2017-12-06T09:53:00.931Z,13.70
2017-12-06T09:53:59.864Z,15.80
2017-12-06T09:54:59.871Z,16.00
2017-12-06T09:55:59.881Z,11.70
2017-12-06T09:56:59.885Z,15.40
2017-12-06T09:57:59.890Z,13.40
2017-12-06T09:59:00.971Z,12.70
2017-12-06T09:59:59.901Z,12.40
2017-12-06T10:00:59.984Z,14.10
2017-12-06T10:01:59.910Z,11.20
2017-12-06T10:03:01.003Z,11.60
2017-12-06T10:03:59.923Z,12.20
2017-12-06T10:04:59.986Z,13.20
2017-12-06T10:05:59.946Z,11.40
2017-12-06T10:07:00.010Z,13.80
2017-12-06T10:07:59.961Z,12.90
2017-12-06T10:09:00.019Z,13.20
2017-12-06T10:09:59.962Z,12.40
2017-12-06T10:11:00.033Z,10.60
2017-12-06T10:11:59.963Z,11.60
2017-12-06T10:13:00.041Z,11.90
2017-12-06T10:14:00.013Z,12.30
2017-12-06T10:15:00.052Z,12.70
2017-12-06T10:15:59.990Z,15.30
2017-12-06T10:17:00.064Z,13.80
2017-12-06T10:18:00.002Z,13.50
2017-12-06T10:19:02.029Z,11.60
2017-12-06T10:20:00.011Z,11.20
2017-12-06T10:21:00.088Z,11.80
2017-12-06T10:22:00.022Z,10.80
2017-12-06T10:23:00.107Z,11.30
2017-12-06T10:24:00.031Z,11.50
2017-12-06T10:25:00.031Z,11.50
2017-12-06T10:26:00.128Z,12.10
2017-12-06T10:27:00.053Z,12.00
2017-12-06T10:28:00.138Z,11.60
2017-12-06T10:29:00.053Z,12.30
2017-12-06T10:30:00.157Z,11.30
2017-12-06T10:31:00.063Z,10.60
2017-12-06T10:32:00.146Z,12.30
2017-12-06T10:33:00.079Z,16.20
2017-12-06T10:34:00.161Z,13.70
2017-12-06T10:35:00.085Z,10.60
2017-12-06T10:36:00.177Z,11.70
2017-12-06T10:37:00.098Z,11.70
2017-12-06T10:38:00.190Z,11.60
2017-12-06T10:39:00.111Z,11.50
2017-12-06T10:40:01.228Z,12.40
2017-12-06T10:41:00.116Z,13.90
2017-12-06T10:42:00.223Z,12.10
2017-12-06T10:43:00.134Z,10.60
2017-12-06T10:44:00.224Z,10.50
2017-12-06T10:45:00.138Z,12.20
2017-12-06T10:46:00.244Z,13.50
2017-12-06T10:47:00.154Z,13.70
2017-12-06T10:48:00.268Z,19.10
2017-12-06T10:49:00.162Z,11.20
2017-12-06T10:50:01.192Z,11.90
2017-12-06T10:51:00.171Z,15.20
2017-12-06T10:52:00.284Z,12.70
2017-12-06T10:53:00.184Z,11.10
2017-12-06T10:54:00.302Z,11.40
2017-12-06T10:55:00.192Z,12.50
2017-12-06T10:56:00.319Z,14.80
2017-12-06T10:57:00.206Z,10.80
2017-12-06T10:58:00.221Z,12.20
2017-12-06T10:59:00.212Z,11.20
2017-12-06T11:00:00.221Z,10.90
2017-12-06T11:01:00.254Z,10.60
2017-12-06T11:02:00.230Z,14.70
2017-12-06T11:03:00.244Z,12.10
2017-12-06T11:04:00.298Z,12.60
2017-12-06T11:05:00.252Z,11.60
2017-12-06T11:06:00.283Z,12.30
2017-12-06T11:07:00.262Z,15.40
2017-12-06T11:08:01.313Z,12.50
2017-12-06T11:09:00.264Z,11.40
2017-12-06T11:10:00.268Z,11.80
2017-12-06T11:11:00.293Z,13.40
2017-12-06T11:12:00.320Z,12.70
2017-12-06T11:13:00.290Z,15.10
2017-12-06T11:14:00.324Z,13.10
2017-12-06T11:15:00.305Z,14.00
2017-12-06T11:16:00.305Z,13.20
2017-12-06T11:17:00.309Z,12.70
2017-12-06T11:18:00.318Z,14.90
2017-12-06T11:19:00.317Z,12.70
2017-12-06T11:20:00.349Z,12.80
2017-12-06T11:21:00.335Z,15.60
2017-12-06T11:22:00.332Z,14.00
2017-12-06T11:23:00.339Z,13.40
2017-12-06T11:24:00.347Z,12.40
2017-12-06T11:25:00.357Z,13.20
2017-12-06T11:26:01.432Z,13.30
2017-12-06T11:27:00.368Z,14.80
2017-12-06T11:28:00.431Z,12.60
2017-12-06T11:29:00.381Z,12.70
2017-12-06T11:30:00.437Z,12.20
2017-12-06T11:31:00.394Z,13.60
2017-12-06T11:32:00.392Z,14.00
2017-12-06T11:33:00.392Z,14.10
2017-12-06T11:34:01.462Z,13.50
2017-12-06T11:35:00.428Z,13.90
2017-12-06T11:36:00.454Z,13.00
2017-12-06T11:37:00.417Z,16.60
2017-12-06T11:38:00.490Z,15.00
2017-12-06T11:39:00.422Z,13.70
2017-12-06T11:40:00.479Z,13.00
2017-12-06T11:41:00.445Z,13.20
2017-12-06T11:42:00.495Z,14.70
2017-12-06T11:43:00.457Z,12.20
2017-12-06T11:44:00.462Z,15.30
2017-12-06T11:45:00.469Z,13.10
2017-12-06T11:46:00.523Z,13.20
2017-12-06T11:47:00.494Z,16.00
2017-12-06T11:48:00.483Z,13.10
2017-12-06T11:49:00.542Z,13.50
2017-12-06T11:50:00.501Z,14.00
2017-12-06T11:51:00.555Z,14.00
2017-12-06T11:52:00.538Z,11.10
2017-12-06T11:53:00.567Z,13.90
2017-12-06T11:54:00.521Z,12.90
2017-12-06T11:55:00.583Z,11.30
2017-12-06T11:56:00.539Z,14.50
2017-12-06T11:57:01.622Z,13.00
2017-12-06T11:58:00.526Z,11.40
2017-12-06T11:59:00.611Z,13.10
2017-12-06T12:00:00.578Z,16.40
2017-12-06T12:01:00.620Z,12.90
2017-12-06T12:02:00.546Z,13.00
2017-12-06T12:03:00.631Z,13.40
2017-12-06T12:04:00.565Z,13.80
2017-12-06T12:05:00.672Z,14.00
2017-12-06T12:06:00.575Z,13.10
2017-12-06T12:07:00.580Z,12.30
2017-12-06T12:08:00.576Z,15.50
2017-12-06T12:09:00.675Z,13.10
2017-12-06T12:10:00.600Z,14.40
2017-12-06T12:11:00.598Z,15.60
2017-12-06T12:12:00.614Z,13.00
2017-12-06T12:13:02.645Z,13.70
2017-12-06T12:14:00.613Z,12.30
2017-12-06T12:15:00.719Z,13.00
2017-12-06T12:16:00.624Z,14.20
2017-12-06T12:17:00.628Z,12.50
2017-12-06T12:18:00.635Z,14.20
2017-12-06T12:19:00.636Z,12.30
2017-12-06T12:20:00.745Z,14.70
2017-12-06T12:21:00.653Z,14.60
2017-12-06T12:22:00.656Z,15.10
2017-12-06T12:23:00.661Z,12.20
2017-12-06T12:24:00.676Z,10.30
2017-12-06T12:25:00.677Z,15.60
2017-12-06T12:26:00.683Z,14.50
2017-12-06T12:27:00.687Z,14.90
2017-12-06T12:28:00.694Z,15.80
2017-12-06T12:29:00.703Z,13.50
2017-12-06T12:30:00.707Z,14.50
2017-12-06T12:31:00.753Z,13.90
2017-12-06T12:32:00.726Z,13.60
2017-12-06T12:33:00.715Z,13.80
2017-12-06T12:34:00.840Z,12.50
2017-12-06T12:35:00.737Z,12.80
2017-12-06T12:36:00.763Z,15.30
2017-12-06T12:37:00.743Z,13.90
2017-12-06T12:38:00.751Z,15.20
2017-12-06T12:39:00.767Z,12.40
2017-12-06T12:40:00.755Z,14.30
2017-12-06T12:41:00.759Z,12.20
2017-12-06T12:42:00.765Z,13.00
2017-12-06T12:43:01.824Z,12.50
2017-12-06T12:44:00.779Z,12.80
2017-12-06T12:45:00.809Z,12.00
2017-12-06T12:46:00.801Z,14.10
2017-12-06T12:47:00.838Z,13.00
2017-12-06T12:48:00.804Z,11.70
2017-12-06T12:49:01.864Z,12.80
2017-12-06T12:50:00.811Z,18.20
2017-12-06T12:51:00.851Z,10.60
2017-12-06T12:52:00.825Z,11.30
2017-12-06T12:53:00.867Z,14.00